sensor_id;sensor_type;location;lat;lon;timestamp;temperature;humidity
22645;DHT22;11489;50.834;6.752;2024-03-23T00:54:25;7.40;97.00
22645;DHT22;11489;50.834;6.752;2024-03-23T00:56:51;7.40;97.00
22645;DHT22;11489;50.834;6.752;2024-03-23T00:59:16;7.40;97.00
22645;DHT22;11489;50.834;6.752;2024-03-23T01:01:42;7.40;97.00
22645;DHT22;11489;50.834;6.752;2024-03-23T01:04:08;7.30;97.10
22645;DHT22;11489;50.834;6.752;2024-03-23T01:06:33;7.30;97.10
22645;DHT22;11489;50.834;6.752;2024-03-23T01:08:59;7.40;97.10
22645;DHT22;11489;50.834;6.752;2024-03-23T01:11:25;7.30;97.10
22645;DHT22;11489;50.834;6.752;2024-03-23T01:13:50;7.30;97.20
22645;DHT22;11489;50.834;6.752;2024-03-23T01:16:16;7.30;97.20
22645;DHT22;11489;50.834;6.752;2024-03-23T01:18:42;7.30;97.30
22645;DHT22;11489;50.834;6.752;2024-03-23T01:21:07;7.30;97.30
22645;DHT22;11489;50.834;6.752;2024-03-23T01:23:33;7.30;97.40
22645;DHT22;11489;50.834;6.752;2024-03-23T01:25:59;7.40;97.50
22645;DHT22;11489;50.834;6.752;2024-03-23T01:28:24;7.30;97.40
22645;DHT22;11489;50.834;6.752;2024-03-23T01:30:50;7.40;97.40
22645;DHT22;11489;50.834;6.752;2024-03-23T01:33:16;7.40;97.50
22645;DHT22;11489;50.834;6.752;2024-03-23T01:35:41;7.40;97.50
22645;DHT22;11489;50.834;6.752;2024-03-23T01:38:07;7.40;97.50
22645;DHT22;11489;50.834;6.752;2024-03-23T01:40:33;7.30;97.40
22645;DHT22;11489;50.834;6.752;2024-03-23T01:43:03;7.30;97.30
22645;DHT22;11489;50.834;6.752;2024-03-23T01:45:30;7.30;97.30
22645;DHT22;11489;50.834;6.752;2024-03-23T01:47:56;7.30;97.30
22645;DHT22;11489;50.834;6.752;2024-03-23T01:50:22;7.20;97.30
22645;DHT22;11489;50.834;6.752;2024-03-23T01:52:49;7.20;97.30
22645;DHT22;11489;50.834;6.752;2024-03-23T01:55:15;7.20;97.20
22645;DHT22;11489;50.834;6.752;2024-03-23T01:57:41;7.20;97.20
22645;DHT22;11489;50.834;6.752;2024-03-23T02:00:07;7.10;97.10
22645;DHT22;11489;50.834;6.752;2024-03-23T02:02:35;7.10;97.20
22645;DHT22;11489;50.834;6.752;2024-03-23T02:05:01;7.00;97.20
22645;DHT22;11489;50.834;6.752;2024-03-23T02:07:27;7.00;97.30
22645;DHT22;11489;50.834;6.752;2024-03-23T02:09:53;7.00;97.40
22645;DHT22;11489;50.834;6.752;2024-03-23T02:12:19;7.00;97.40
22645;DHT22;11489;50.834;6.752;2024-03-23T02:14:46;6.90;97.00
22645;DHT22;11489;50.834;6.752;2024-03-23T02:17:12;6.80;96.60
22645;DHT22;11489;50.834;6.752;2024-03-23T02:19:38;6.70;96.40
22645;DHT22;11489;50.834;6.752;2024-03-23T02:22:04;6.60;96.50
22645;DHT22;11489;50.834;6.752;2024-03-23T02:24:30;6.50;96.60
22645;DHT22;11489;50.834;6.752;2024-03-23T02:26:55;6.40;96.60
22645;DHT22;11489;50.834;6.752;2024-03-23T02:29:21;6.30;96.50
22645;DHT22;11489;50.834;6.752;2024-03-23T02:31:47;6.30;96.50
22645;DHT22;11489;50.834;6.752;2024-03-23T02:34:13;6.20;96.50
22645;DHT22;11489;50.834;6.752;2024-03-23T02:36:39;6.10;96.60
22645;DHT22;11489;50.834;6.752;2024-03-23T02:39:04;6.00;96.70
22645;DHT22;11489;50.834;6.752;2024-03-23T02:41:30;5.90;96.70
22645;DHT22;11489;50.834;6.752;2024-03-23T02:43:56;5.90;96.90
22645;DHT22;11489;50.834;6.752;2024-03-23T02:46:21;5.80;97.00
22645;DHT22;11489;50.834;6.752;2024-03-23T02:48:50;5.80;97.00
22645;DHT22;11489;50.834;6.752;2024-03-23T02:51:16;5.70;97.10
22645;DHT22;11489;50.834;6.752;2024-03-23T02:53:42;5.70;97.10
22645;DHT22;11489;50.834;6.752;2024-03-23T02:56:07;5.70;97.20
22645;DHT22;11489;50.834;6.752;2024-03-23T02:58:33;5.60;97.20
22645;DHT22;11489;50.834;6.752;2024-03-23T03:00:59;5.60;97.20
22645;DHT22;11489;50.834;6.752;2024-03-23T03:03:25;5.50;97.30
22645;DHT22;11489;50.834;6.752;2024-03-23T03:05:56;5.50;97.30
22645;DHT22;11489;50.834;6.752;2024-03-23T03:08:22;5.50;97.30
22645;DHT22;11489;50.834;6.752;2024-03-23T03:10:48;5.50;97.30
22645;DHT22;11489;50.834;6.752;2024-03-23T03:13:13;5.40;97.30
22645;DHT22;11489;50.834;6.752;2024-03-23T03:15:41;5.40;97.40
22645;DHT22;11489;50.834;6.752;2024-03-23T03:18:06;5.40;97.50
22645;DHT22;11489;50.834;6.752;2024-03-23T03:20:32;5.40;97.50
22645;DHT22;11489;50.834;6.752;2024-03-23T03:22:58;5.40;97.60
22645;DHT22;11489;50.834;6.752;2024-03-23T03:25:24;5.40;97.60
22645;DHT22;11489;50.834;6.752;2024-03-23T03:27:50;5.40;97.60
22645;DHT22;11489;50.834;6.752;2024-03-23T03:30:15;5.40;97.60
22645;DHT22;11489;50.834;6.752;2024-03-23T03:32:42;5.40;97.60
22645;DHT22;11489;50.834;6.752;2024-03-23T03:35:07;5.40;97.60
22645;DHT22;11489;50.834;6.752;2024-03-23T03:37:34;5.40;97.70
22645;DHT22;11489;50.834;6.752;2024-03-23T03:39:59;5.40;97.80
22645;DHT22;11489;50.834;6.752;2024-03-23T03:42:25;5.30;97.70
22645;DHT22;11489;50.834;6.752;2024-03-23T03:44:51;5.40;97.60
22645;DHT22;11489;50.834;6.752;2024-03-23T03:47:18;5.40;97.60
22645;DHT22;11489;50.834;6.752;2024-03-23T03:49:43;5.40;97.70
22645;DHT22;11489;50.834;6.752;2024-03-23T03:52:09;5.40;97.60
22645;DHT22;11489;50.834;6.752;2024-03-23T03:54:35;5.40;97.60
22645;DHT22;11489;50.834;6.752;2024-03-23T03:57:00;5.40;97.90
22645;DHT22;11489;50.834;6.752;2024-03-23T03:59:26;5.30;97.60
22645;DHT22;11489;50.834;6.752;2024-03-23T04:01:52;5.30;97.60
22645;DHT22;11489;50.834;6.752;2024-03-23T04:04:17;5.30;97.70
22645;DHT22;11489;50.834;6.752;2024-03-23T04:06:43;5.30;97.70
22645;DHT22;11489;50.834;6.752;2024-03-23T04:09:09;5.30;97.70
22645;DHT22;11489;50.834;6.752;2024-03-23T04:11:35;5.30;97.80
22645;DHT22;11489;50.834;6.752;2024-03-23T04:14:01;5.30;97.70
22645;DHT22;11489;50.834;6.752;2024-03-23T04:16:34;5.30;97.70
22645;DHT22;11489;50.834;6.752;2024-03-23T04:19:00;5.40;97.80
22645;DHT22;11489;50.834;6.752;2024-03-23T04:21:26;5.30;97.80
22645;DHT22;11489;50.834;6.752;2024-03-23T04:23:51;5.40;97.80
22645;DHT22;11489;50.834;6.752;2024-03-23T04:26:17;5.40;97.90
22645;DHT22;11489;50.834;6.752;2024-03-23T04:28:43;5.30;98.20
22645;DHT22;11489;50.834;6.752;2024-03-23T04:31:09;5.40;97.90
22645;DHT22;11489;50.834;6.752;2024-03-23T04:33:35;5.40;97.90
22645;DHT22;11489;50.834;6.752;2024-03-23T04:36:00;5.40;97.90
22645;DHT22;11489;50.834;6.752;2024-03-23T04:38:26;5.30;97.90
22645;DHT22;11489;50.834;6.752;2024-03-23T04:40:56;5.40;97.90
22645;DHT22;11489;50.834;6.752;2024-03-23T04:43:22;5.30;97.80
22645;DHT22;11489;50.834;6.752;2024-03-23T04:45:48;5.40;97.90
22645;DHT22;11489;50.834;6.752;2024-03-23T04:48:14;5.30;97.90
22645;DHT22;11489;50.834;6.752;2024-03-23T04:50:39;5.30;97.90
22645;DHT22;11489;50.834;6.752;2024-03-23T04:53:07;5.40;97.90
22645;DHT22;11489;50.834;6.752;2024-03-23T04:55:32;5.40;98.00
22645;DHT22;11489;50.834;6.752;2024-03-23T04:57:58;5.30;98.00
22645;DHT22;11489;50.834;6.752;2024-03-23T05:00:24;5.40;98.00
22645;DHT22;11489;50.834;6.752;2024-03-23T05:02:50;5.40;98.10
22645;DHT22;11489;50.834;6.752;2024-03-23T05:05:16;5.30;98.00
22645;DHT22;11489;50.834;6.752;2024-03-23T05:07:42;5.40;98.10
22645;DHT22;11489;50.834;6.752;2024-03-23T05:10:09;5.40;98.10
22645;DHT22;11489;50.834;6.752;2024-03-23T05:12:39;5.40;98.10
22645;DHT22;11489;50.834;6.752;2024-03-23T05:15:05;5.40;98.10
22645;DHT22;11489;50.834;6.752;2024-03-23T05:17:32;5.40;98.10
22645;DHT22;11489;50.834;6.752;2024-03-23T05:19:58;5.40;98.10
22645;DHT22;11489;50.834;6.752;2024-03-23T05:22:25;5.40;98.10
22645;DHT22;11489;50.834;6.752;2024-03-23T05:24:50;5.40;98.10
22645;DHT22;11489;50.834;6.752;2024-03-23T05:27:16;5.40;98.10
22645;DHT22;11489;50.834;6.752;2024-03-23T05:29:42;5.40;98.10
22645;DHT22;11489;50.834;6.752;2024-03-23T05:32:07;5.40;98.10
22645;DHT22;11489;50.834;6.752;2024-03-23T05:34:33;5.40;98.10
22645;DHT22;11489;50.834;6.752;2024-03-23T05:36:59;5.40;98.00
22645;DHT22;11489;50.834;6.752;2024-03-23T05:39:25;5.40;98.00
22645;DHT22;11489;50.834;6.752;2024-03-23T05:41:50;5.40;98.00
22645;DHT22;11489;50.834;6.752;2024-03-23T05:44:16;5.40;98.10
22645;DHT22;11489;50.834;6.752;2024-03-23T05:46:42;5.30;98.00
22645;DHT22;11489;50.834;6.752;2024-03-23T05:49:13;5.30;98.00
22645;DHT22;11489;50.834;6.752;2024-03-23T05:51:39;5.30;98.00
22645;DHT22;11489;50.834;6.752;2024-03-23T05:54:05;5.30;98.10
22645;DHT22;11489;50.834;6.752;2024-03-23T05:56:31;5.30;98.10
22645;DHT22;11489;50.834;6.752;2024-03-23T05:58:57;5.30;98.50
22645;DHT22;11489;50.834;6.752;2024-03-23T06:01:22;5.30;98.10
22645;DHT22;11489;50.834;6.752;2024-03-23T06:03:48;5.30;98.10
22645;DHT22;11489;50.834;6.752;2024-03-23T06:06:14;5.30;98.10
22645;DHT22;11489;50.834;6.752;2024-03-23T06:08:40;5.30;98.10
22645;DHT22;11489;50.834;6.752;2024-03-23T06:11:06;5.30;98.10
22645;DHT22;11489;50.834;6.752;2024-03-23T06:13:32;5.30;98.10
22645;DHT22;11489;50.834;6.752;2024-03-23T06:16:00;5.30;98.10
22645;DHT22;11489;50.834;6.752;2024-03-23T06:18:25;5.30;98.10
22645;DHT22;11489;50.834;6.752;2024-03-23T06:20:52;5.30;98.00
22645;DHT22;11489;50.834;6.752;2024-03-23T06:23:17;5.30;98.00
22645;DHT22;11489;50.834;6.752;2024-03-23T06:25:45;5.30;97.90
22645;DHT22;11489;50.834;6.752;2024-03-23T06:28:11;5.20;97.90
22645;DHT22;11489;50.834;6.752;2024-03-23T06:30:37;5.20;97.90
22645;DHT22;11489;50.834;6.752;2024-03-23T06:33:03;5.20;97.90
22645;DHT22;11489;50.834;6.752;2024-03-23T06:35:28;5.20;98.00
22645;DHT22;11489;50.834;6.752;2024-03-23T06:37:54;5.20;98.00
22645;DHT22;11489;50.834;6.752;2024-03-23T06:40:20;5.20;98.10
22645;DHT22;11489;50.834;6.752;2024-03-23T06:42:45;5.20;98.20
22645;DHT22;11489;50.834;6.752;2024-03-23T06:45:11;5.20;98.20
22645;DHT22;11489;50.834;6.752;2024-03-23T06:47:37;5.20;98.30
22645;DHT22;11489;50.834;6.752;2024-03-23T06:50:03;5.30;98.40
22645;DHT22;11489;50.834;6.752;2024-03-23T06:52:29;5.30;98.50
22645;DHT22;11489;50.834;6.752;2024-03-23T06:54:55;5.30;98.60
22645;DHT22;11489;50.834;6.752;2024-03-23T06:57:21;5.30;98.60
22645;DHT22;11489;50.834;6.752;2024-03-23T06:59:47;5.40;98.70
22645;DHT22;11489;50.834;6.752;2024-03-23T07:02:13;5.50;98.70
22645;DHT22;11489;50.834;6.752;2024-03-23T07:04:38;5.50;98.80
22645;DHT22;11489;50.834;6.752;2024-03-23T07:07:07;5.60;98.80
22645;DHT22;11489;50.834;6.752;2024-03-23T07:09:32;5.70;98.80
22645;DHT22;11489;50.834;6.752;2024-03-23T07:11:58;5.70;99.00
22645;DHT22;11489;50.834;6.752;2024-03-23T07:14:24;5.80;98.90
22645;DHT22;11489;50.834;6.752;2024-03-23T07:16:50;5.90;98.90
22645;DHT22;11489;50.834;6.752;2024-03-23T07:19:17;6.00;99.00
22645;DHT22;11489;50.834;6.752;2024-03-23T07:21:43;6.00;99.00
22645;DHT22;11489;50.834;6.752;2024-03-23T07:24:09;6.10;99.00
22645;DHT22;11489;50.834;6.752;2024-03-23T07:26:35;6.20;99.00
22645;DHT22;11489;50.834;6.752;2024-03-23T07:29:01;6.30;99.10
22645;DHT22;11489;50.834;6.752;2024-03-23T07:31:27;6.40;99.10
22645;DHT22;11489;50.834;6.752;2024-03-23T07:33:53;6.50;99.10
22645;DHT22;11489;50.834;6.752;2024-03-23T07:36:19;6.50;99.00
22645;DHT22;11489;50.834;6.752;2024-03-23T07:38:44;6.70;99.00
22645;DHT22;11489;50.834;6.752;2024-03-23T07:41:18;6.70;99.20
22645;DHT22;11489;50.834;6.752;2024-03-23T07:43:45;6.90;99.50
22645;DHT22;11489;50.834;6.752;2024-03-23T07:46:11;7.10;99.30
22645;DHT22;11489;50.834;6.752;2024-03-23T07:48:40;7.10;98.70
22645;DHT22;11489;50.834;6.752;2024-03-23T07:51:21;7.20;98.00
22645;DHT22;11489;50.834;6.752;2024-03-23T07:53:47;7.20;97.00
22645;DHT22;11489;50.834;6.752;2024-03-23T07:56:14;7.10;96.80
22645;DHT22;11489;50.834;6.752;2024-03-23T07:58:47;7.00;96.60
22645;DHT22;11489;50.834;6.752;2024-03-23T08:01:15;6.90;96.50
22645;DHT22;11489;50.834;6.752;2024-03-23T08:03:43;6.80;96.50
22645;DHT22;11489;50.834;6.752;2024-03-23T08:06:18;6.70;96.40
22645;DHT22;11489;50.834;6.752;2024-03-23T08:08:52;6.70;96.20
22645;DHT22;11489;50.834;6.752;2024-03-23T08:11:29;6.60;96.50
22645;DHT22;11489;50.834;6.752;2024-03-23T08:13:55;6.60;96.60
22645;DHT22;11489;50.834;6.752;2024-03-23T08:16:21;6.60;96.80
22645;DHT22;11489;50.834;6.752;2024-03-23T08:18:47;6.60;97.20
22645;DHT22;11489;50.834;6.752;2024-03-23T08:21:13;6.70;97.40
22645;DHT22;11489;50.834;6.752;2024-03-23T08:23:39;6.70;97.60
22645;DHT22;11489;50.834;6.752;2024-03-23T08:26:06;6.80;97.80
22645;DHT22;11489;50.834;6.752;2024-03-23T08:28:33;6.90;98.00
22645;DHT22;11489;50.834;6.752;2024-03-23T08:31:01;7.00;98.10
22645;DHT22;11489;50.834;6.752;2024-03-23T08:33:28;7.20;98.50
22645;DHT22;11489;50.834;6.752;2024-03-23T08:35:55;7.30;98.70
22645;DHT22;11489;50.834;6.752;2024-03-23T08:38:24;7.50;99.00
22645;DHT22;11489;50.834;6.752;2024-03-23T08:41:00;7.70;99.10
22645;DHT22;11489;50.834;6.752;2024-03-23T08:43:26;7.90;99.10
22645;DHT22;11489;50.834;6.752;2024-03-23T08:45:53;8.10;99.10
22645;DHT22;11489;50.834;6.752;2024-03-23T08:48:21;8.20;99.10
22645;DHT22;11489;50.834;6.752;2024-03-23T08:50:57;8.40;98.70
22645;DHT22;11489;50.834;6.752;2024-03-23T08:53:23;8.50;98.40
22645;DHT22;11489;50.834;6.752;2024-03-23T08:55:58;8.60;97.70
22645;DHT22;11489;50.834;6.752;2024-03-23T08:58:26;8.70;97.10
22645;DHT22;11489;50.834;6.752;2024-03-23T09:00:52;8.70;96.90
22645;DHT22;11489;50.834;6.752;2024-03-23T09:03:18;8.70;96.70
22645;DHT22;11489;50.834;6.752;2024-03-23T09:05:44;8.60;96.80
22645;DHT22;11489;50.834;6.752;2024-03-23T09:08:10;8.60;97.10
22645;DHT22;11489;50.834;6.752;2024-03-23T09:10:39;8.70;97.40
22645;DHT22;11489;50.834;6.752;2024-03-23T09:13:05;8.70;97.40
22645;DHT22;11489;50.834;6.752;2024-03-23T09:15:33;8.80;97.50
22645;DHT22;11489;50.834;6.752;2024-03-23T09:17:59;8.80;97.40
22645;DHT22;11489;50.834;6.752;2024-03-23T09:20:26;8.90;97.20
22645;DHT22;11489;50.834;6.752;2024-03-23T09:22:51;8.90;97.40
22645;DHT22;11489;50.834;6.752;2024-03-23T09:25:17;9.00;97.50
22645;DHT22;11489;50.834;6.752;2024-03-23T09:27:44;9.10;97.20
22645;DHT22;11489;50.834;6.752;2024-03-23T09:30:11;9.20;97.00
22645;DHT22;11489;50.834;6.752;2024-03-23T09:32:37;9.30;97.40
22645;DHT22;11489;50.834;6.752;2024-03-23T09:35:03;9.30;97.40
22645;DHT22;11489;50.834;6.752;2024-03-23T09:37:28;9.40;97.20
22645;DHT22;11489;50.834;6.752;2024-03-23T09:39:54;9.50;97.20
22645;DHT22;11489;50.834;6.752;2024-03-23T09:42:20;9.50;97.00
22645;DHT22;11489;50.834;6.752;2024-03-23T09:44:46;9.60;97.10
22645;DHT22;11489;50.834;6.752;2024-03-23T09:47:12;9.70;97.60
22645;DHT22;11489;50.834;6.752;2024-03-23T09:49:38;9.90;98.30
22645;DHT22;11489;50.834;6.752;2024-03-23T09:52:04;10.00;97.90
22645;DHT22;11489;50.834;6.752;2024-03-23T09:54:30;10.20;97.50
22645;DHT22;11489;50.834;6.752;2024-03-23T09:56:55;10.30;96.90
22645;DHT22;11489;50.834;6.752;2024-03-23T09:59:21;10.40;96.30
22645;DHT22;11489;50.834;6.752;2024-03-23T10:01:47;10.40;95.70
22645;DHT22;11489;50.834;6.752;2024-03-23T10:04:36;10.30;95.70
22645;DHT22;11489;50.834;6.752;2024-03-23T10:07:15;10.30;94.40
22645;DHT22;11489;50.834;6.752;2024-03-23T10:09:44;10.30;95.10
22645;DHT22;11489;50.834;6.752;2024-03-23T10:12:10;10.30;95.60
22645;DHT22;11489;50.834;6.752;2024-03-23T10:14:37;10.20;95.30
22645;DHT22;11489;50.834;6.752;2024-03-23T10:17:19;10.20;94.70
22645;DHT22;11489;50.834;6.752;2024-03-23T10:19:46;10.10;93.20
22645;DHT22;11489;50.834;6.752;2024-03-23T10:22:22;9.90;93.70
22645;DHT22;11489;50.834;6.752;2024-03-23T10:24:48;9.70;93.30
22645;DHT22;11489;50.834;6.752;2024-03-23T10:27:21;9.40;93.40
22645;DHT22;11489;50.834;6.752;2024-03-23T10:29:48;9.20;93.30
22645;DHT22;11489;50.834;6.752;2024-03-23T10:32:18;9.10;94.10
22645;DHT22;11489;50.834;6.752;2024-03-23T10:34:45;8.90;94.50
22645;DHT22;11489;50.834;6.752;2024-03-23T10:37:11;8.80;94.70
22645;DHT22;11489;50.834;6.752;2024-03-23T10:39:40;8.70;94.90
22645;DHT22;11489;50.834;6.752;2024-03-23T10:42:07;8.70;95.00
22645;DHT22;11489;50.834;6.752;2024-03-23T10:44:34;8.50;95.10
22645;DHT22;11489;50.834;6.752;2024-03-23T10:47:04;8.50;95.60
22645;DHT22;11489;50.834;6.752;2024-03-23T10:49:34;8.60;96.60
22645;DHT22;11489;50.834;6.752;2024-03-23T10:52:04;8.70;97.50
22645;DHT22;11489;50.834;6.752;2024-03-23T10:54:31;8.90;98.10
22645;DHT22;11489;50.834;6.752;2024-03-23T10:57:05;9.10;98.20
22645;DHT22;11489;50.834;6.752;2024-03-23T10:59:32;9.40;98.10
22645;DHT22;11489;50.834;6.752;2024-03-23T11:02:00;9.60;98.50
22645;DHT22;11489;50.834;6.752;2024-03-23T11:04:31;9.90;98.30
22645;DHT22;11489;50.834;6.752;2024-03-23T11:06:58;10.10;98.40
22645;DHT22;11489;50.834;6.752;2024-03-23T11:09:41;10.40;98.30
22645;DHT22;11489;50.834;6.752;2024-03-23T11:14:49;10.80;95.50
22645;DHT22;11489;50.834;6.752;2024-03-23T11:17:19;10.80;95.70
22645;DHT22;11489;50.834;6.752;2024-03-23T11:20:03;10.80;94.30
22645;DHT22;11489;50.834;6.752;2024-03-23T11:25:25;10.50;93.70
22645;DHT22;11489;50.834;6.752;2024-03-23T11:27:53;10.20;93.40
22645;DHT22;11489;50.834;6.752;2024-03-23T11:32:48;9.90;94.80
22645;DHT22;11489;50.834;6.752;2024-03-23T11:35:37;9.90;95.90
22645;DHT22;11489;50.834;6.752;2024-03-23T11:38:08;9.90;96.00
22645;DHT22;11489;50.834;6.752;2024-03-23T11:40:36;10.10;97.70
22645;DHT22;11489;50.834;6.752;2024-03-23T11:43:04;10.30;98.00
22645;DHT22;11489;50.834;6.752;2024-03-23T11:45:44;10.50;98.40
22645;DHT22;11489;50.834;6.752;2024-03-23T11:48:12;10.80;97.40
22645;DHT22;11489;50.834;6.752;2024-03-23T11:50:40;11.10;98.90
22645;DHT22;11489;50.834;6.752;2024-03-23T11:53:13;11.40;98.90
22645;DHT22;11489;50.834;6.752;2024-03-23T11:55:52;11.70;97.60
22645;DHT22;11489;50.834;6.752;2024-03-23T11:58:19;11.90;96.60
22645;DHT22;11489;50.834;6.752;2024-03-23T12:01:01;12.10;96.70
22645;DHT22;11489;50.834;6.752;2024-03-23T12:03:29;12.30;95.20
22645;DHT22;11489;50.834;6.752;2024-03-23T12:05:56;12.40;97.20
22645;DHT22;11489;50.834;6.752;2024-03-23T12:11:10;12.70;96.20
22645;DHT22;11489;50.834;6.752;2024-03-23T12:13:37;12.80;94.60
22645;DHT22;11489;50.834;6.752;2024-03-23T12:16:33;12.90;95.90
22645;DHT22;11489;50.834;6.752;2024-03-23T12:19:05;13.00;93.70
22645;DHT22;11489;50.834;6.752;2024-03-23T12:21:31;13.00;94.80
22645;DHT22;11489;50.834;6.752;2024-03-23T12:23:56;13.10;94.90
22645;DHT22;11489;50.834;6.752;2024-03-23T12:26:22;12.90;91.60
22645;DHT22;11489;50.834;6.752;2024-03-23T12:28:48;12.60;89.30
22645;DHT22;11489;50.834;6.752;2024-03-23T12:31:14;12.10;88.50
22645;DHT22;11489;50.834;6.752;2024-03-23T12:33:40;11.50;87.60
22645;DHT22;11489;50.834;6.752;2024-03-23T12:36:05;11.00;89.80
22645;DHT22;11489;50.834;6.752;2024-03-23T12:38:31;10.60;90.00
22645;DHT22;11489;50.834;6.752;2024-03-23T12:40:57;10.20;90.30
22645;DHT22;11489;50.834;6.752;2024-03-23T12:43:22;9.90;90.50
22645;DHT22;11489;50.834;6.752;2024-03-23T12:45:49;9.50;91.20
22645;DHT22;11489;50.834;6.752;2024-03-23T12:48:15;9.30;91.50
22645;DHT22;11489;50.834;6.752;2024-03-23T12:50:41;9.10;92.30
22645;DHT22;11489;50.834;6.752;2024-03-23T12:53:07;9.10;92.40
22645;DHT22;11489;50.834;6.752;2024-03-23T12:55:35;9.00;92.70
22645;DHT22;11489;50.834;6.752;2024-03-23T12:58:01;8.90;92.70
22645;DHT22;11489;50.834;6.752;2024-03-23T13:00:27;8.80;92.90
22645;DHT22;11489;50.834;6.752;2024-03-23T13:02:53;8.70;93.70
22645;DHT22;11489;50.834;6.752;2024-03-23T13:05:19;8.70;94.80
22645;DHT22;11489;50.834;6.752;2024-03-23T13:07:44;8.80;95.50
22645;DHT22;11489;50.834;6.752;2024-03-23T13:10:10;8.90;95.90
22645;DHT22;11489;50.834;6.752;2024-03-23T13:12:36;9.00;95.50
22645;DHT22;11489;50.834;6.752;2024-03-23T13:15:02;9.20;95.90
22645;DHT22;11489;50.834;6.752;2024-03-23T13:17:28;9.40;96.50
22645;DHT22;11489;50.834;6.752;2024-03-23T13:19:54;9.60;96.40
22645;DHT22;11489;50.834;6.752;2024-03-23T13:22:22;9.80;95.90
22645;DHT22;11489;50.834;6.752;2024-03-23T13:24:47;9.90;96.10
22645;DHT22;11489;50.834;6.752;2024-03-23T13:27:13;10.00;95.70
22645;DHT22;11489;50.834;6.752;2024-03-23T13:29:39;10.10;95.70
22645;DHT22;11489;50.834;6.752;2024-03-23T13:32:05;10.20;95.50
22645;DHT22;11489;50.834;6.752;2024-03-23T13:34:31;10.30;95.70
22645;DHT22;11489;50.834;6.752;2024-03-23T13:36:59;10.40;95.60
22645;DHT22;11489;50.834;6.752;2024-03-23T13:39:25;10.40;95.00
22645;DHT22;11489;50.834;6.752;2024-03-23T13:41:53;10.50;95.00
22645;DHT22;11489;50.834;6.752;2024-03-23T13:44:20;10.40;94.40
22645;DHT22;11489;50.834;6.752;2024-03-23T13:46:46;10.40;93.40
22645;DHT22;11489;50.834;6.752;2024-03-23T13:49:39;10.30;93.20
22645;DHT22;11489;50.834;6.752;2024-03-23T13:52:06;10.10;92.20
22645;DHT22;11489;50.834;6.752;2024-03-23T13:54:32;10.00;93.50
22645;DHT22;11489;50.834;6.752;2024-03-23T13:56:58;9.80;93.30
22645;DHT22;11489;50.834;6.752;2024-03-23T13:59:23;9.70;92.10
22645;DHT22;11489;50.834;6.752;2024-03-23T14:01:50;9.50;92.50
22645;DHT22;11489;50.834;6.752;2024-03-23T14:04:16;9.30;91.70
22645;DHT22;11489;50.834;6.752;2024-03-23T14:06:43;9.10;91.90
22645;DHT22;11489;50.834;6.752;2024-03-23T14:09:11;8.80;92.10
22645;DHT22;11489;50.834;6.752;2024-03-23T14:11:37;8.70;92.80
22645;DHT22;11489;50.834;6.752;2024-03-23T14:14:03;8.50;93.00
22645;DHT22;11489;50.834;6.752;2024-03-23T14:16:32;8.40;93.30
22645;DHT22;11489;50.834;6.752;2024-03-23T14:18:59;8.30;93.90
22645;DHT22;11489;50.834;6.752;2024-03-23T14:21:25;8.20;93.90
22645;DHT22;11489;50.834;6.752;2024-03-23T14:23:50;8.10;94.10
22645;DHT22;11489;50.834;6.752;2024-03-23T14:26:16;8.10;94.30
22645;DHT22;11489;50.834;6.752;2024-03-23T14:28:42;8.10;94.40
22645;DHT22;11489;50.834;6.752;2024-03-23T14:31:08;8.10;94.50
22645;DHT22;11489;50.834;6.752;2024-03-23T14:33:37;8.10;94.90
22645;DHT22;11489;50.834;6.752;2024-03-23T14:36:04;8.20;95.20
22645;DHT22;11489;50.834;6.752;2024-03-23T14:38:30;8.20;95.30
22645;DHT22;11489;50.834;6.752;2024-03-23T14:41:00;8.40;95.60
22645;DHT22;11489;50.834;6.752;2024-03-23T14:43:26;8.40;95.90
22645;DHT22;11489;50.834;6.752;2024-03-23T14:46:14;8.60;96.50
22645;DHT22;11489;50.834;6.752;2024-03-23T14:48:42;8.80;95.80
22645;DHT22;11489;50.834;6.752;2024-03-23T14:51:08;9.00;96.40
22645;DHT22;11489;50.834;6.752;2024-03-23T14:53:36;9.20;96.00
22645;DHT22;11489;50.834;6.752;2024-03-23T14:56:05;9.20;95.20
22645;DHT22;11489;50.834;6.752;2024-03-23T15:36:02;5.70;96.20
22645;DHT22;11489;50.834;6.752;2024-03-23T15:38:28;5.70;96.50
22645;DHT22;11489;50.834;6.752;2024-03-23T15:40:56;5.80;96.50
22645;DHT22;11489;50.834;6.752;2024-03-23T15:43:22;5.80;96.70
22645;DHT22;11489;50.834;6.752;2024-03-23T15:45:58;5.90;96.70
22645;DHT22;11489;50.834;6.752;2024-03-23T15:48:28;6.00;96.50
22645;DHT22;11489;50.834;6.752;2024-03-23T15:50:58;6.00;96.50
22645;DHT22;11489;50.834;6.752;2024-03-23T15:53:25;6.00;96.30
22645;DHT22;11489;50.834;6.752;2024-03-23T15:58:23;6.10;96.20
22645;DHT22;11489;50.834;6.752;2024-03-23T16:01:06;6.00;96.30
22645;DHT22;11489;50.834;6.752;2024-03-23T16:03:34;6.10;96.10
22645;DHT22;11489;50.834;6.752;2024-03-23T16:06:09;6.10;96.00
22645;DHT22;11489;50.834;6.752;2024-03-23T16:08:46;6.00;95.40
22645;DHT22;11489;50.834;6.752;2024-03-23T16:11:12;5.90;95.10
22645;DHT22;11489;50.834;6.752;2024-03-23T16:13:38;5.80;94.80
22645;DHT22;11489;50.834;6.752;2024-03-23T16:16:05;5.60;94.70
22645;DHT22;11489;50.834;6.752;2024-03-23T16:18:36;5.50;94.80
22645;DHT22;11489;50.834;6.752;2024-03-23T16:21:04;5.30;95.40
22645;DHT22;11489;50.834;6.752;2024-03-23T16:23:32;5.20;95.30
22645;DHT22;11489;50.834;6.752;2024-03-23T16:25:58;5.20;95.70
22645;DHT22;11489;50.834;6.752;2024-03-23T16:30:59;5.10;96.30
22645;DHT22;11489;50.834;6.752;2024-03-23T16:33:26;5.10;96.70
22645;DHT22;11489;50.834;6.752;2024-03-23T16:36:00;5.10;97.00
22645;DHT22;11489;50.834;6.752;2024-03-23T16:38:29;5.20;97.30
22645;DHT22;11489;50.834;6.752;2024-03-23T16:40:59;5.30;97.50
22645;DHT22;11489;50.834;6.752;2024-03-23T16:43:26;5.40;97.60
22645;DHT22;11489;50.834;6.752;2024-03-23T16:48:25;5.60;97.80
22645;DHT22;11489;50.834;6.752;2024-03-23T16:50:52;5.70;97.80
22645;DHT22;11489;50.834;6.752;2024-03-23T16:53:18;5.80;97.90
22645;DHT22;11489;50.834;6.752;2024-03-23T16:55:44;5.90;97.90
22645;DHT22;11489;50.834;6.752;2024-03-23T16:58:10;6.00;97.70
22645;DHT22;11489;50.834;6.752;2024-03-23T17:00:36;6.10;97.40
22645;DHT22;11489;50.834;6.752;2024-03-23T17:03:03;6.20;97.00
22645;DHT22;11489;50.834;6.752;2024-03-23T17:05:29;6.20;96.60
22645;DHT22;11489;50.834;6.752;2024-03-23T17:07:55;6.20;96.30
22645;DHT22;11489;50.834;6.752;2024-03-23T17:10:24;6.20;96.20
22645;DHT22;11489;50.834;6.752;2024-03-23T17:12:49;6.10;96.10
22645;DHT22;11489;50.834;6.752;2024-03-23T17:15:15;6.10;96.00
22645;DHT22;11489;50.834;6.752;2024-03-23T17:17:46;6.00;96.00
22645;DHT22;11489;50.834;6.752;2024-03-23T17:20:12;6.00;95.90
22645;DHT22;11489;50.834;6.752;2024-03-23T17:22:38;5.90;95.90
22645;DHT22;11489;50.834;6.752;2024-03-23T17:25:04;5.90;95.90
22645;DHT22;11489;50.834;6.752;2024-03-23T17:27:29;5.80;95.90
22645;DHT22;11489;50.834;6.752;2024-03-23T17:29:55;5.70;95.80
22645;DHT22;11489;50.834;6.752;2024-03-23T17:32:21;5.70;95.90
22645;DHT22;11489;50.834;6.752;2024-03-23T17:34:46;5.60;96.20